createdAt,value
2019-03-30T00:03:13.849Z,91.44
2019-03-30T00:07:19.001Z,91.69
2019-03-30T00:11:22.336Z,91.61
2019-03-30T00:15:25.765Z,91.47
2019-03-30T00:19:34.715Z,91.42
2019-03-30T00:23:35.201Z,91.44
2019-03-30T00:27:38.470Z,91.61
2019-03-30T00:31:42.255Z,91.43
2019-03-30T00:35:45.551Z,91.33
2019-03-30T00:39:48.928Z,91.27
2019-03-30T00:43:52.205Z,91.33
2019-03-30T00:47:55.804Z,91.43
2019-03-30T00:51:59.051Z,91.46
2019-03-30T00:56:02.454Z,91.42
2019-03-30T01:00:06.593Z,91.34
2019-03-30T01:04:09.979Z,91.40
2019-03-30T01:08:13.285Z,91.34
2019-03-30T01:12:16.924Z,91.38
2019-03-30T01:16:20.349Z,91.46
2019-03-30T01:20:23.677Z,91.45
2019-03-30T01:24:26.955Z,91.74
2019-03-30T01:28:30.369Z,91.77
2019-03-30T01:32:35.212Z,91.72
2019-03-30T01:36:38.692Z,91.87
2019-03-30T01:40:41.966Z,91.95
2019-03-30T01:44:45.343Z,91.88
2019-03-30T01:48:48.639Z,91.86
2019-03-30T01:52:53.801Z,92.02
2019-03-30T01:56:57.321Z,92.03
2019-03-30T02:01:00.684Z,92.25
2019-03-30T02:05:04.278Z,92.38
2019-03-30T02:09:08.184Z,92.52
2019-03-30T02:13:11.568Z,92.67
2019-03-30T02:17:14.947Z,92.57
2019-03-30T02:21:18.208Z,92.56
2019-03-30T02:25:21.586Z,92.45
2019-03-30T02:29:24.868Z,92.38
2019-03-30T02:33:29.740Z,92.48
2019-03-30T02:37:33.429Z,92.72
2019-03-30T02:41:36.926Z,92.81
2019-03-30T02:45:40.294Z,92.97
2019-03-30T02:49:43.587Z,93.06
2019-03-30T02:53:48.625Z,93.18
2019-03-30T02:57:52.021Z,93.17
2019-03-30T03:01:55.426Z,93.07
2019-03-30T03:05:58.962Z,92.97
2019-03-30T03:10:04.699Z,92.97
2019-03-30T03:14:08.073Z,92.91
2019-03-30T03:18:11.369Z,92.90
2019-03-30T03:22:14.751Z,92.95
2019-03-30T03:26:18.049Z,93.28
2019-03-30T03:30:21.608Z,93.41
2019-03-30T03:34:24.977Z,93.44
2019-03-30T03:38:28.513Z,93.38
2019-03-30T03:42:31.972Z,93.37
2019-03-30T03:46:35.332Z,93.39
2019-03-30T03:50:50.053Z,93.39
2019-03-30T03:54:55.868Z,93.37
2019-03-30T03:59:01.765Z,93.43
2019-03-30T04:03:06.642Z,93.32
2019-03-30T04:07:11.802Z,93.31
2019-03-30T04:11:16.869Z,93.25
2019-03-30T04:15:27.528Z,93.23
2019-03-30T04:19:31.317Z,93.24
2019-03-30T04:23:35.593Z,93.21
2019-03-30T04:27:38.939Z,93.22
2019-03-30T04:31:42.211Z,93.28
2019-03-30T04:35:45.568Z,93.28
2019-03-30T04:39:48.815Z,93.33
2019-03-30T04:43:52.185Z,93.39
2019-03-30T04:47:55.448Z,93.44
2019-03-30T04:51:58.831Z,93.39
2019-03-30T04:56:03.837Z,93.39
2019-03-30T05:00:07.695Z,93.42
2019-03-30T05:04:10.951Z,93.43
2019-03-30T05:08:14.446Z,93.35
2019-03-30T05:12:17.725Z,93.36
2019-03-30T05:16:21.190Z,93.24
2019-03-30T05:20:24.460Z,93.18
2019-03-30T05:24:27.786Z,93.10
2019-03-30T05:28:31.082Z,92.92
2019-03-30T05:32:34.468Z,92.53
2019-03-30T05:36:37.743Z,92.37
2019-03-30T05:40:41.121Z,92.12
2019-03-30T05:44:44.393Z,91.97
2019-03-30T05:48:47.742Z,91.98
2019-03-30T05:52:51.146Z,91.62
2019-03-30T05:56:54.800Z,91.27
2019-03-30T06:00:58.364Z,90.89
2019-03-30T06:05:03.709Z,89.41
2019-03-30T06:09:07.997Z,88.68
2019-03-30T06:13:12.485Z,88.07
2019-03-30T06:17:15.961Z,88.17
2019-03-30T06:21:19.300Z,86.05
2019-03-30T06:25:22.866Z,85.28
2019-03-30T06:29:26.226Z,84.77
2019-03-30T06:33:29.501Z,83.74
2019-03-30T06:37:33.026Z,81.70
2019-03-30T06:41:37.386Z,81.15
2019-03-30T06:45:40.811Z,80.17
2019-03-30T06:49:44.087Z,77.74
2019-03-30T06:53:47.443Z,78.58
2019-03-30T06:57:51.043Z,77.35
2019-03-30T07:01:54.963Z,77.01
2019-03-30T07:05:58.971Z,75.67
2019-03-30T07:10:04.434Z,74.69
2019-03-30T07:14:07.839Z,74.62
2019-03-30T07:18:11.496Z,73.34
2019-03-30T07:22:14.762Z,73.26
2019-03-30T07:26:18.132Z,72.84
2019-03-30T07:30:21.418Z,72.62
2019-03-30T07:34:25.006Z,72.00
2019-03-30T07:38:28.659Z,71.75
2019-03-30T07:42:32.109Z,71.95
2019-03-30T07:46:35.493Z,71.20
2019-03-30T07:50:38.855Z,71.15
2019-03-30T07:54:42.115Z,70.54
2019-03-30T07:58:45.578Z,70.47
2019-03-30T08:02:48.916Z,69.93
2019-03-30T08:06:52.325Z,69.52
2019-03-30T08:10:55.610Z,68.93
2019-03-30T08:14:59.002Z,68.87
2019-03-30T08:19:02.285Z,68.16
2019-03-30T08:23:05.612Z,67.57
2019-03-30T08:27:08.893Z,66.85
2019-03-30T08:31:12.487Z,67.11
2019-03-30T08:35:16.112Z,66.98
2019-03-30T08:39:19.488Z,65.97
2019-03-30T08:43:22.765Z,65.53
2019-03-30T08:47:26.145Z,64.56
2019-03-30T08:51:29.478Z,64.36
2019-03-30T08:55:32.823Z,63.23
2019-03-30T08:59:36.315Z,63.75
2019-03-30T09:03:39.666Z,62.94
2019-03-30T09:07:42.935Z,63.72
2019-03-30T09:11:46.280Z,62.29
2019-03-30T09:15:49.553Z,62.04
2019-03-30T09:19:52.920Z,62.45
2019-03-30T09:24:08.964Z,61.17
2019-03-30T09:28:01.339Z,60.93
2019-03-30T09:32:14.430Z,60.53
2019-03-30T09:36:09.695Z,59.42
2019-03-30T09:40:13.621Z,59.00
2019-03-30T09:44:16.965Z,57.05
2019-03-30T09:48:21.298Z,57.23
2019-03-30T09:52:25.092Z,53.93
2019-03-30T09:56:28.610Z,54.96
2019-03-30T10:00:32.200Z,53.56
2019-03-30T10:04:35.470Z,53.71
2019-03-30T10:08:39.897Z,51.81
2019-03-30T10:12:43.186Z,51.78
2019-03-30T10:16:48.735Z,51.20
2019-03-30T10:20:52.287Z,50.52
2019-03-30T10:24:58.366Z,49.12
2019-03-30T10:55:36.150Z,48.27
2019-03-30T10:59:39.846Z,48.83
2019-03-30T11:03:44.939Z,50.21
2019-03-30T11:07:48.245Z,48.00
2019-03-30T11:11:51.643Z,48.92
2019-03-30T11:15:55.106Z,47.32
2019-03-30T11:19:58.489Z,47.45
2019-03-30T11:24:01.825Z,48.10
2019-03-30T11:28:05.324Z,48.48
2019-03-30T11:32:08.926Z,47.79
2019-03-30T11:36:12.574Z,48.10
2019-03-30T11:40:16.004Z,48.25
2019-03-30T11:44:19.392Z,47.22
2019-03-30T11:48:22.744Z,47.54
2019-03-30T11:52:26.118Z,47.53
2019-03-30T11:56:29.477Z,47.99
2019-03-30T12:00:32.897Z,48.92
2019-03-30T12:04:36.530Z,48.20
2019-03-30T12:08:40.224Z,48.94
2019-03-30T12:12:44.820Z,47.76
2019-03-30T12:16:48.209Z,46.53
2019-03-30T12:20:51.539Z,45.20
2019-03-30T12:24:54.932Z,45.52
2019-03-30T12:28:58.260Z,46.04
2019-03-30T12:33:01.887Z,47.24
2019-03-30T12:37:06.262Z,45.19
2019-03-30T12:41:12.797Z,45.97
2019-03-30T12:45:21.705Z,44.93
2019-03-30T12:49:26.612Z,46.06
2019-03-30T12:53:32.255Z,44.09
2019-03-30T12:57:37.311Z,42.87
2019-03-30T13:01:48.638Z,42.20
2019-03-30T13:05:53.449Z,43.50
2019-03-30T13:10:04.269Z,43.84
2019-03-30T13:14:07.870Z,43.82
2019-03-30T13:18:11.246Z,44.81
2019-03-30T13:22:14.680Z,43.63
2019-03-30T13:26:17.997Z,44.87
2019-03-30T13:30:23.484Z,45.12
2019-03-30T13:34:30.772Z,45.29
2019-03-30T13:38:54.948Z,45.69
2019-03-30T13:43:02.090Z,44.89
2019-03-30T13:47:05.407Z,45.37
2019-03-30T13:51:08.734Z,45.29
2019-03-30T13:55:12.337Z,44.99
2019-03-30T13:59:15.664Z,45.34
2019-03-30T14:03:20.674Z,44.72
2019-03-30T14:07:24.146Z,45.56
2019-03-30T14:11:27.488Z,46.10
2019-03-30T14:15:34.959Z,45.12
2019-03-30T14:19:38.341Z,45.43
2019-03-30T14:23:43.482Z,45.70
2019-03-30T14:27:46.815Z,45.27
2019-03-30T14:31:50.117Z,46.96
2019-03-30T14:35:53.645Z,45.60
2019-03-30T14:39:56.955Z,45.92
2019-03-30T14:44:01.841Z,46.54
2019-03-30T14:48:05.219Z,46.35
2019-03-30T14:52:08.546Z,47.61
2019-03-30T14:56:11.933Z,48.30
2019-03-30T15:00:15.862Z,47.90
2019-03-30T15:04:19.239Z,51.06
2019-03-30T15:08:22.756Z,50.87
2019-03-30T15:12:26.137Z,51.30
2019-03-30T15:16:29.561Z,52.55
2019-03-30T15:20:33.289Z,53.14
2019-03-30T15:24:36.635Z,53.04
2019-03-30T15:28:42.669Z,54.58
2019-03-30T15:32:45.188Z,53.28
2019-03-30T15:36:48.464Z,54.06
2019-03-30T15:40:55.459Z,55.34
2019-03-30T15:44:57.076Z,56.00
2019-03-30T15:49:00.679Z,55.94
2019-03-30T15:53:03.983Z,57.72
2019-03-30T15:57:13.892Z,58.69
2019-03-30T16:01:12.662Z,59.38
2019-03-30T16:05:16.821Z,61.29
2019-03-30T16:09:20.553Z,64.13
2019-03-30T16:13:23.932Z,64.70
2019-03-30T16:17:27.229Z,66.03
2019-03-30T16:21:30.595Z,67.22
2019-03-30T16:25:34.986Z,67.43
2019-03-30T16:29:38.353Z,67.98
2019-03-30T16:33:41.662Z,68.26
2019-03-30T16:37:45.005Z,68.12
2019-03-30T16:41:48.283Z,68.91
2019-03-30T16:45:52.123Z,69.72
2019-03-30T16:49:55.376Z,70.00
2019-03-30T16:53:58.917Z,69.74
2019-03-30T16:58:02.312Z,71.04
2019-03-30T17:02:05.885Z,71.16
2019-03-30T17:06:09.222Z,72.08
2019-03-30T17:10:13.355Z,71.81
2019-03-30T17:14:16.721Z,72.84
2019-03-30T17:18:20.251Z,73.91
2019-03-30T17:22:23.829Z,74.20
2019-03-30T17:26:27.184Z,74.36
2019-03-30T17:30:30.792Z,74.81
2019-03-30T17:34:34.424Z,75.45
2019-03-30T17:38:37.984Z,76.88
2019-03-30T17:42:41.342Z,76.09
2019-03-30T17:46:44.641Z,76.68
2019-03-30T17:50:49.103Z,75.92
2019-03-30T17:54:52.415Z,76.31
2019-03-30T17:58:55.759Z,76.66
2019-03-30T18:02:59.057Z,76.56
2019-03-30T18:07:02.730Z,76.42
2019-03-30T18:11:06.235Z,77.04
2019-03-30T18:15:11.119Z,77.04
2019-03-30T18:19:14.383Z,77.40
2019-03-30T18:23:18.739Z,77.81
2019-03-30T18:27:23.124Z,77.83
2019-03-30T18:31:26.444Z,77.69
2019-03-30T18:35:31.258Z,78.15
2019-03-30T18:39:34.927Z,78.78
2019-03-30T18:43:38.260Z,79.05
2019-03-30T18:47:41.598Z,79.27
2019-03-30T18:51:47.087Z,79.83
2019-03-30T18:55:50.405Z,79.74
2019-03-30T18:59:53.684Z,80.15
2019-03-30T19:03:57.179Z,80.38
2019-03-30T19:08:00.558Z,80.65
2019-03-30T19:12:05.807Z,80.45
2019-03-30T19:16:09.214Z,80.74
2019-03-30T19:20:12.824Z,80.68
2019-03-30T19:24:16.349Z,80.71
2019-03-30T19:28:19.756Z,81.03
2019-03-30T19:32:23.303Z,81.69
2019-03-30T19:36:27.676Z,82.46
2019-03-30T19:40:30.985Z,82.55
2019-03-30T19:44:34.320Z,83.53
2019-03-30T19:48:37.607Z,83.89
2019-03-30T19:52:41.159Z,84.22
2019-03-30T19:56:45.435Z,84.94
2019-03-30T20:00:48.754Z,85.36
2019-03-30T20:04:52.055Z,85.27
2019-03-30T20:08:55.546Z,85.77
2019-03-30T20:12:59.055Z,86.38
2019-03-30T20:17:02.465Z,86.62
2019-03-30T20:21:05.771Z,86.54
2019-03-30T20:25:10.031Z,86.46
2019-03-30T20:29:24.708Z,86.66
2019-03-30T20:33:18.410Z,86.96
2019-03-30T20:37:21.749Z,87.13
2019-03-30T20:41:25.061Z,87.28
2019-03-30T20:45:28.586Z,87.56
2019-03-30T20:49:32.129Z,87.47
2019-03-30T20:53:35.523Z,87.84
2019-03-30T20:57:39.205Z,88.20
2019-03-30T21:01:42.679Z,88.40
2019-03-30T21:05:46.072Z,88.55
2019-03-30T21:09:49.332Z,89.24
2019-03-30T21:13:56.722Z,89.13
2019-03-30T21:17:59.334Z,89.57
2019-03-30T21:22:02.723Z,89.59
2019-03-30T21:26:06.301Z,89.65
2019-03-30T21:30:10.814Z,89.62
2019-03-30T21:34:14.186Z,89.70
2019-03-30T21:38:17.827Z,89.70
2019-03-30T21:42:21.208Z,89.96
2019-03-30T21:46:24.615Z,89.97
2019-03-30T21:50:27.864Z,90.03
2019-03-30T21:54:31.214Z,90.10
2019-03-30T21:58:35.934Z,90.14
2019-03-30T22:02:39.270Z,90.10
2019-03-30T22:06:42.630Z,90.24
2019-03-30T22:10:46.007Z,90.04
2019-03-30T22:14:49.857Z,90.21
2019-03-30T22:18:53.202Z,90.19
2019-03-30T22:22:56.469Z,90.15
2019-03-30T22:26:59.810Z,90.19
2019-03-30T22:31:03.515Z,90.24
2019-03-30T22:35:07.378Z,90.32
2019-03-30T22:39:10.821Z,90.38
2019-03-30T22:43:14.214Z,90.48
2019-03-30T22:47:17.482Z,90.45
2019-03-30T22:51:20.910Z,90.56
2019-03-30T22:55:24.137Z,90.59
2019-03-30T22:59:27.479Z,90.59
2019-03-30T23:03:30.768Z,90.60
2019-03-30T23:07:34.118Z,90.66
2019-03-30T23:11:37.362Z,90.73
2019-03-30T23:15:40.941Z,90.82
2019-03-30T23:19:44.567Z,91.01
2019-03-30T23:23:48.086Z,91.08
2019-03-30T23:27:51.578Z,91.13
2019-03-30T23:31:55.074Z,91.40
2019-03-30T23:35:58.333Z,91.40
2019-03-30T23:40:01.764Z,91.43
2019-03-30T23:44:05.101Z,91.47
2019-03-30T23:48:10.650Z,91.61
2019-03-30T23:52:14.316Z,91.73
2019-03-30T23:56:24.871Z,91.63
